»·PEaware :: QXE1180 KSAN-KSBA

QXE1180 :: KSAN-KSBA

FLIGHT INFORMATION

Flight Status: Arrived
Operator:
Horizon Air
More flights by this operator :: More flights under this callsign
Pilot: Anonymous 10181 (10181)
Aircraft: DEHAVILLAND DASH 8 400
(DH8D)
More flights by this aircraft type
Origin: KSAN San Diego Intl-Lindbergh
United States
Destination: KSBA Santa Barbara Mun
United States
More flights between these airports :: More routes between these airports
Route: +CWARD2 CWARD AVOLS V208 VTU VTU282 KWANG
File this flight plan on PilotEdge
Remarks: Happy Wednesday!
Altitude:
(Current/Filed)
8,000ft
Speed:
(Current/Filed)
250kts
Departed: 20-May-20 02:16 PM
Arrived: 20-May-20 03:07 PM
Distance/Time
Traveled:
167nm/0:50
Distance/Time
To Go:
Arrived

Flight Plot

Page will automatically refresh every two minutes.

Flight plan parsing failed; only flown route is shown


Map Options




Map Legend


Flown Route
Filed Route
Departure Airport
Arrival Airport
Navaid (VOR, NDB)
Fix

Horizontal Profiles

Position Reports

Time Latitude Longitude Heading Altitude Ground
Speed
20-May-20 13:25 32.731199 -117.195333 265 22ft 0kts
20-May-20 13:26 32.731199 -117.195333 265 22ft 0kts
20-May-20 13:27 32.731199 -117.195333 265 22ft 0kts
20-May-20 13:28 32.731199 -117.195333 265 22ft 0kts
20-May-20 13:30 32.731199 -117.195333 265 22ft 0kts
20-May-20 13:31 32.731199 -117.195333 265 22ft 0kts
20-May-20 13:32 32.731199 -117.195333 265 22ft 0kts
20-May-20 13:33 32.731199 -117.195333 265 22ft 0kts
20-May-20 13:34 32.731199 -117.195333 265 22ft 0kts
20-May-20 13:35 32.731199 -117.195333 265 22ft 0kts
20-May-20 13:36 32.731199 -117.195333 265 22ft 0kts
20-May-20 13:37 32.731199 -117.195333 265 22ft 0kts
20-May-20 13:38 32.731199 -117.195333 265 22ft 0kts
20-May-20 13:39 32.731199 -117.195333 265 22ft 0kts
20-May-20 13:40 32.731199 -117.195333 265 22ft 0kts
20-May-20 13:41 32.731199 -117.195333 265 22ft 0kts
20-May-20 13:42 32.731199 -117.195333 265 22ft 0kts
20-May-20 13:43 32.731199 -117.195333 265 22ft 0kts
20-May-20 13:44 32.731199 -117.195333 265 22ft 0kts
20-May-20 13:45 32.731199 -117.195333 265 22ft 0kts
20-May-20 13:46 32.731199 -117.195333 265 22ft 0kts
20-May-20 13:46 32.731199 -117.195333 265 22ft 0kts
20-May-20 13:48 32.731199 -117.195333 265 22ft 0kts
20-May-20 13:48 32.731199 -117.195333 265 22ft 0kts
20-May-20 13:49 32.731199 -117.195333 265 22ft 0kts
20-May-20 13:51 32.731199 -117.195333 265 22ft 0kts
20-May-20 13:51 32.731199 -117.195333 265 22ft 0kts
20-May-20 13:52 32.731199 -117.195333 265 22ft 0kts
20-May-20 13:53 32.731199 -117.195333 265 22ft 0kts
20-May-20 13:54 32.731199 -117.195333 265 22ft 0kts
20-May-20 13:55 32.731199 -117.195333 265 22ft 0kts
20-May-20 13:56 32.731199 -117.195333 265 22ft 0kts
20-May-20 13:57 32.731199 -117.195333 265 22ft 0kts
20-May-20 13:58 32.731199 -117.195333 265 22ft 0kts
20-May-20 13:59 32.731199 -117.195333 265 22ft 0kts
20-May-20 14:00 32.731199 -117.195333 265 22ft 0kts
20-May-20 14:01 32.731278 -117.195389 9 22ft 1kts
20-May-20 14:02 32.732700 -117.194636 27 22ft 0kts
20-May-20 14:03 32.732635 -117.194677 27 22ft 0kts
20-May-20 14:04 32.732941 -117.194466 30 22ft 0kts
20-May-20 14:05 32.733000 -117.194425 29 22ft 1kts
20-May-20 14:06 32.733150 -117.192298 106 22ft 15kts
20-May-20 14:07 32.732116 -117.187928 105 22ft 11kts
20-May-20 14:08 32.731280 -117.184467 105 22ft 9kts
20-May-20 14:09 32.730344 -117.180604 106 22ft 16kts
20-May-20 14:10 32.729564 -117.177465 104 22ft 1kts
20-May-20 14:11 32.729533 -117.176728 74 22ft 0kts
20-May-20 14:12 32.729540 -117.176698 74 22ft 0kts
20-May-20 14:13 32.729564 -117.176598 74 22ft 5kts
20-May-20 14:14 32.730423 -117.176775 285 22ft 37kts
20-May-20 14:15 32.740210 -117.214309 285 1409ft 152kts
20-May-20 14:16 32.764703 -117.261426 309 3905ft 175kts
20-May-20 14:17 32.796048 -117.305607 301 6583ft 187kts
20-May-20 14:18 32.827515 -117.361564 305 8076ft 236kts
20-May-20 14:19 32.866270 -117.431092 305 8085ft 256kts
20-May-20 14:20 32.908649 -117.498205 318 7987ft 255kts
20-May-20 14:21 32.955699 -117.560252 308 7984ft 252kts
20-May-20 14:22 32.997824 -117.626276 307 7983ft 250kts
20-May-20 14:23 33.039468 -117.691747 307 7985ft 248kts
20-May-20 14:24 33.085289 -117.752143 319 7986ft 247kts
20-May-20 14:25 33.137600 -117.804685 319 7986ft 246kts
20-May-20 14:26 33.190486 -117.856394 331 7984ft 246kts
20-May-20 14:27 33.256248 -117.877527 347 7983ft 245kts
20-May-20 14:28 33.320380 -117.900955 313 7978ft 245kts
20-May-20 14:29 33.335004 -117.979834 277 7985ft 248kts
20-May-20 14:30 33.342375 -118.061497 278 8002ft 248kts
20-May-20 14:31 33.349863 -118.142953 277 8010ft 248kts
20-May-20 14:32 33.357350 -118.224573 278 8016ft 248kts
20-May-20 14:33 33.364850 -118.307014 278 8022ft 249kts
20-May-20 14:34 33.372292 -118.389189 277 8025ft 249kts
20-May-20 14:35 33.403885 -118.460273 309 8027ft 245kts
20-May-20 14:36 33.447164 -118.522529 310 8023ft 244kts
20-May-20 14:37 33.490930 -118.584894 310 8022ft 244kts
20-May-20 14:38 33.534646 -118.647296 310 8017ft 247kts
20-May-20 14:39 33.578953 -118.710644 310 8013ft 250kts
20-May-20 14:40 33.623474 -118.774429 310 8010ft 252kts
20-May-20 14:41 33.668010 -118.838384 310 8034ft 252kts
20-May-20 14:42 33.713036 -118.903166 310 8034ft 253kts
20-May-20 14:43 33.757768 -118.967691 310 8033ft 253kts
20-May-20 14:44 33.813380 -119.014514 348 8029ft 253kts
20-May-20 14:45 33.882889 -119.025497 353 8026ft 253kts
20-May-20 14:46 33.953184 -119.032561 354 8026ft 254kts
20-May-20 14:47 34.023606 -119.039895 354 8026ft 255kts
20-May-20 14:48 34.093995 -119.049205 341 7967ft 258kts
20-May-20 14:49 34.138256 -119.108416 302 6217ft 236kts
20-May-20 14:50 34.166709 -119.171893 298 6009ft 192kts
20-May-20 14:51 34.193202 -119.235544 298 6026ft 235kts
20-May-20 14:52 34.223956 -119.309289 297 6019ft 254kts
20-May-20 14:53 34.255482 -119.385071 298 5869ft 245kts
20-May-20 14:54 34.283592 -119.452747 298 4073ft 213kts
20-May-20 14:55 34.306028 -119.517647 275 4023ft 229kts
20-May-20 14:56 34.306887 -119.598316 272 4015ft 250kts
20-May-20 14:57 34.308164 -119.680596 273 4006ft 238kts
20-May-20 14:58 34.309388 -119.759740 273 4004ft 236kts
20-May-20 14:59 34.310545 -119.839693 273 4002ft 239kts
20-May-20 15:00 34.311726 -119.920448 273 4003ft 241kts
20-May-20 15:01 34.316403 -120.000519 299 3993ft 233kts
20-May-20 15:02 34.371419 -120.008157 19 4007ft 220kts
20-May-20 15:03 34.422579 -119.979215 43 3109ft 201kts
20-May-20 15:04 34.428747 -119.921617 97 1595ft 146kts
20-May-20 15:05 34.427127 -119.872723 85 476ft 132kts
20-May-20 15:06 34.427822 -119.840156 87 18ft 35kts
20-May-20 15:07 34.426908 -119.835316 218 17ft 0kts
20-May-20 15:08 34.426729 -119.837264 268 18ft 12kts
20-May-20 15:09 34.425124 -119.837246 113 17ft 0kts
20-May-20 15:10 34.425124 -119.837246 113 17ft 0kts
20-May-20 15:11 34.425124 -119.837246 113 17ft 0kts
20-May-20 15:12 34.425124 -119.837246 113 17ft 0kts
20-May-20 15:13 34.425124 -119.837246 113 17ft 0kts
20-May-20 15:14 34.425124 -119.837246 113 17ft 0kts
20-May-20 15:15 34.425124 -119.837246 113 17ft 0kts
20-May-20 15:16 34.425124 -119.837246 113 17ft 0kts
20-May-20 15:17 34.425124 -119.837246 113 17ft 0kts
20-May-20 15:18 34.425124 -119.837246 113 17ft 0kts
20-May-20 15:19 34.425124 -119.837246 113 17ft 0kts
20-May-20 15:20 34.425124 -119.837246 113 17ft 0kts

Navigation Log

Ident Type
Flight plan parsing failed, navigation log unavailable